Time;durP1;ratioP1;P1;durP2;ratioP2;P2;SDS_P1;SDS_P2;PMS_P1;PMS_P2;Temp;Humidity;BMP_temperature;BMP_pressure;BME280_temperature;BME280_humidity;BME280_pressure;Samples;Min_cycle;Max_cycle;Signal;HPM_P1;HPM_P2
2022/12/27 00:01:55;;;;;;;10.50;2.00;;;;;;;;;;5060137;28;20056;-64
2022/12/27 00:04:21;;;;;;;9.63;3.17;;;;;;;;;;5061512;28;20628;-64
2022/12/27 00:06:47;;;;;;;9.77;2.30;;;;;;;;;;5061015;28;20045;-64
2022/12/27 00:09:13;;;;;;;9.10;2.63;;;;;;;;;;5060169;28;20051;-64
2022/12/27 00:11:39;;;;;;;9.60;2.67;;;;;;;;;;5061487;28;20541;-64
2022/12/27 00:14:06;;;;;;;11.07;2.53;;;;;;;;;;5062757;28;20407;-64
2022/12/27 00:16:33;;;;;;;9.33;2.63;;;;;;;;;;5062544;28;20052;-64
2022/12/27 00:18:59;;;;;;;9.57;2.50;;;;;;;;;;5057540;28;20041;-64
2022/12/27 00:21:25;;;;;;;13.40;2.83;;;;;;;;;;5060125;28;20078;-64
2022/12/27 00:23:53;;;;;;;14.70;2.67;;;;;;;;;;5062726;28;20072;-64
2022/12/27 00:26:23;;;;;;;9.17;2.30;;;;;;;;;;5056592;28;20055;-64
2022/12/27 00:28:49;;;;;;;10.53;2.60;;;;;;;;;;5057821;28;20044;-64
2022/12/27 00:31:16;;;;;;;13.17;2.97;;;;;;;;;;5060674;28;20044;-64
2022/12/27 00:33:43;;;;;;;9.33;2.67;;;;;;;;;;5062576;28;20076;-64
2022/12/27 00:36:11;;;;;;;12.33;2.73;;;;;;;;;;5058005;28;20047;-64
2022/12/27 00:38:37;;;;;;;10.63;2.70;;;;;;;;;;5056484;28;20056;-64
2022/12/27 00:41:04;;;;;;;13.57;2.83;;;;;;;;;;5057280;28;20037;-64
2022/12/27 00:43:30;;;;;;;15.43;3.70;;;;;;;;;;5058487;28;20067;-64
2022/12/27 00:45:56;;;;;;;11.67;2.97;;;;;;;;;;5062436;28;20059;-64
2022/12/27 00:48:23;;;;;;;28.63;4.13;;;;;;;;;;5059522;28;20048;-64
2022/12/27 00:50:49;;;;;;;8.87;2.80;;;;;;;;;;5055632;28;20067;-64
2022/12/27 00:53:15;;;;;;;11.07;2.60;;;;;;;;;;5060354;28;20418;-64
2022/12/27 00:55:42;;;;;;;11.53;3.20;;;;;;;;;;5060660;28;20059;-64
2022/12/27 00:58:08;;;;;;;13.93;2.63;;;;;;;;;;5055417;28;20083;-64
2022/12/27 01:00:34;;;;;;;12.13;2.60;;;;;;;;;;5056635;28;20793;-64
2022/12/27 01:03:00;;;;;;;16.30;2.93;;;;;;;;;;5058273;28;20053;-64
2022/12/27 01:05:27;;;;;;;14.37;3.70;;;;;;;;;;5049019;28;20057;-64
2022/12/27 01:07:53;;;;;;;14.87;3.20;;;;;;;;;;5053970;28;20122;-64
2022/12/27 01:10:19;;;;;;;36.40;4.87;;;;;;;;;;5068543;28;20548;-64
2022/12/27 01:12:45;;;;;;;13.17;4.77;;;;;;;;;;5068658;28;20052;-64
2022/12/27 01:15:11;;;;;;;15.70;3.93;;;;;;;;;;5069846;28;20056;-64
2022/12/27 01:17:37;;;;;;;8.90;2.53;;;;;;;;;;5068667;28;20067;-64
2022/12/27 01:20:03;;;;;;;12.13;2.60;;;;;;;;;;5068093;28;20422;-64
2022/12/27 01:22:30;;;;;;;15.33;3.77;;;;;;;;;;5053955;28;20052;-64
2022/12/27 01:24:56;;;;;;;9.93;3.17;;;;;;;;;;5069636;28;20056;-64
2022/12/27 01:27:22;;;;;;;6.47;2.03;;;;;;;;;;5068087;28;20056;-64
2022/12/27 01:29:48;;;;;;;13.87;3.57;;;;;;;;;;5069492;28;20044;-64
2022/12/27 01:32:14;;;;;;;14.70;3.73;;;;;;;;;;5069100;28;20055;-64
2022/12/27 01:34:40;;;;;;;15.13;4.27;;;;;;;;;;5069445;28;20060;-64
2022/12/27 01:37:06;;;;;;;13.47;3.20;;;;;;;;;;5069267;28;20063;-64
2022/12/27 01:39:32;;;;;;;11.93;2.97;;;;;;;;;;5064349;28;20048;-64
2022/12/27 01:44:50;;;;;;;15.20;4.13;;;;;;;;;;5069204;28;20063;-64
2022/12/27 01:47:16;;;;;;;9.43;3.70;;;;;;;;;;5069230;28;20056;-64
2022/12/27 01:49:49;;;;;;;13.43;2.77;;;;;;;;;;5063931;28;20068;-64
2022/12/27 01:52:15;;;;;;;20.92;4.95;;;;;;;;;;5048808;28;20048;-64
2022/12/27 01:54:41;;;;;;;19.73;4.23;;;;;;;;;;5057368;28;20415;-64
2022/12/27 01:57:07;;;;;;;16.90;2.80;;;;;;;;;;5052736;28;20049;-63
2022/12/27 01:59:34;;;;;;;12.23;2.77;;;;;;;;;;5068737;28;20052;-64
2022/12/27 02:02:00;;;;;;;11.77;3.10;;;;;;;;;;5069130;28;20051;-64
2022/12/27 02:04:27;;;;;;;13.53;3.87;;;;;;;;;;5060980;28;20045;-64
2022/12/27 02:06:54;;;;;;;13.83;2.90;;;;;;;;;;5049342;28;20049;-64
2022/12/27 02:09:38;;;;;;;14.43;3.40;;;;;;;;;;5054551;28;20871;-64
2022/12/27 02:12:06;;;;;;;13.83;4.60;;;;;;;;;;5069049;28;20041;-64
2022/12/27 02:14:32;;;;;;;12.50;3.40;;;;;;;;;;5059787;28;20120;-64
2022/12/27 02:16:59;;;;;;;14.57;3.10;;;;;;;;;;5065814;28;20076;-64
2022/12/27 02:19:34;;;;;;;13.50;3.33;;;;;;;;;;5068717;28;20059;-64
2022/12/27 02:22:06;;;;;;;10.17;2.80;;;;;;;;;;5069090;28;20174;-64
2022/12/27 02:24:32;;;;;;;14.97;3.73;;;;;;;;;;5047327;28;20037;-64
2022/12/27 02:27:21;;;;;;;11.23;3.70;;;;;;;;;;5060161;28;20041;-65
2022/12/27 02:29:57;;;;;;;12.37;3.50;;;;;;;;;;5067552;28;20083;-64
2022/12/27 02:32:28;;;;;;;11.80;3.27;;;;;;;;;;5063652;28;20502;-64
2022/12/27 02:35:01;;;;;;;14.57;3.20;;;;;;;;;;5068661;28;20074;-64
2022/12/27 02:37:28;;;;;;;12.70;3.63;;;;;;;;;;5061992;28;20052;-64
2022/12/27 02:39:55;;;;;;;10.80;2.67;;;;;;;;;;5059489;28;20048;-64
2022/12/27 02:54:15;;;;;;;20.00;3.40;;;;;;;;;;5059927;28;20045;-65
2022/12/27 02:57:09;;;;;;;16.50;3.77;;;;;;;;;;5058621;28;20049;-64
2022/12/27 02:59:35;;;;;;;;;;;;;;;;;;5067565;28;20048;-64
2022/12/27 03:04:54;;;;;;;8.90;2.73;;;;;;;;;;5053879;28;20044;-64
2022/12/27 03:07:32;;;;;;;12.80;2.80;;;;;;;;;;5049200;28;20395;-64
2022/12/27 03:15:56;;;;;;;18.57;4.77;;;;;;;;;;5043121;28;20048;-64
2022/12/27 03:18:37;;;;;;;13.67;3.00;;;;;;;;;;5045049;28;20049;-64
2022/12/27 03:26:55;;;;;;;14.45;3.17;;;;;;;;;;5035136;28;20126;-64
2022/12/27 03:34:55;;;;;;;12.00;3.07;;;;;;;;;;5060350;28;20060;-64
2022/12/27 03:40:10;;;;;;;13.87;3.63;;;;;;;;;;5061693;28;20048;-64
2022/12/27 03:48:25;;;;;;;14.47;2.60;;;;;;;;;;5061494;28;20507;-64
2022/12/27 03:50:56;;;;;;;16.93;3.23;;;;;;;;;;5051120;28;20045;-64
2022/12/27 03:53:29;;;;;;;12.27;3.90;;;;;;;;;;5063369;28;20048;-64
2022/12/27 03:55:55;;;;;;;15.35;4.25;;;;;;;;;;5071211;28;20411;-64
2022/12/27 03:58:21;;;;;;;7.07;2.03;;;;;;;;;;5071225;28;20445;-64
2022/12/27 04:00:47;;;;;;;14.07;2.10;;;;;;;;;;5071956;28;20072;-64
2022/12/27 04:03:13;;;;;;;11.23;3.03;;;;;;;;;;5070762;28;20052;-64
2022/12/27 04:05:39;;;;;;;11.83;2.80;;;;;;;;;;5058794;28;20114;-64
2022/12/27 04:35:34;;;;;;;14.53;2.80;;;;;;;;;;5070336;28;20057;-64
2022/12/27 04:38:00;;;;;;;18.30;4.03;;;;;;;;;;5070810;28;20418;-64
2022/12/27 04:57:01;;;;;;;15.13;3.00;;;;;;;;;;5069850;28;20522;-64
2022/12/27 05:02:13;;;;;;;12.70;3.10;;;;;;;;;;5069587;28;20080;-64
2022/12/27 05:04:39;;;;;;;10.10;3.53;;;;;;;;;;5069939;28;20087;-64
2022/12/27 05:15:21;;;;;;;17.10;3.13;;;;;;;;;;5050881;28;20068;-64
2022/12/27 05:17:47;;;;;;;13.93;3.37;;;;;;;;;;5049319;28;20410;-64
2022/12/27 05:20:13;;;;;;;12.57;2.97;;;;;;;;;;5048089;28;20053;-64
2022/12/27 05:25:33;;;;;;;13.17;4.70;;;;;;;;;;5069172;28;20052;-64
2022/12/27 05:27:59;;;;;;;15.93;4.30;;;;;;;;;;5067206;28;20511;-64
2022/12/27 05:30:25;;;;;;;14.33;3.60;;;;;;;;;;5069179;28;20129;-64
2022/12/27 05:32:54;;;;;;;9.43;4.33;;;;;;;;;;5068864;28;20087;-64
2022/12/27 05:35:21;;;;;;;16.67;4.60;;;;;;;;;;5069089;28;20076;-64
2022/12/27 05:37:47;;;;;;;13.53;3.37;;;;;;;;;;5068620;28;20182;-64
2022/12/27 05:40:13;;;;;;;14.30;3.57;;;;;;;;;;5068218;28;20102;-64
2022/12/27 05:42:39;;;;;;;13.97;3.30;;;;;;;;;;5068126;28;20141;-64
2022/12/27 05:45:05;;;;;;;11.77;3.30;;;;;;;;;;5067028;28;20044;-65
2022/12/27 05:47:31;;;;;;;15.23;4.10;;;;;;;;;;5068928;28;20526;-64
2022/12/27 05:49:57;;;;;;;20.00;4.23;;;;;;;;;;5068666;28;20052;-64
2022/12/27 05:52:23;;;;;;;17.43;3.93;;;;;;;;;;5068280;28;20087;-64
2022/12/27 05:54:49;;;;;;;11.27;3.47;;;;;;;;;;5068293;28;20040;-64
2022/12/27 05:57:15;;;;;;;22.33;4.37;;;;;;;;;;5066905;28;20067;-65
2022/12/27 05:59:41;;;;;;;14.63;3.30;;;;;;;;;;5068305;28;20036;-64
2022/12/27 06:02:07;;;;;;;17.40;3.53;;;;;;;;;;5067476;28;20045;-64
2022/12/27 06:04:33;;;;;;;17.87;3.57;;;;;;;;;;5067527;28;20056;-64
2022/12/27 06:06:59;;;;;;;12.63;3.20;;;;;;;;;;5066707;28;20048;-64
2022/12/27 06:09:25;;;;;;;17.17;3.80;;;;;;;;;;5061990;28;20037;-64
2022/12/27 06:11:51;;;;;;;9.03;3.30;;;;;;;;;;5064681;28;20048;-64
2022/12/27 06:14:17;;;;;;;17.50;3.60;;;;;;;;;;5054425;28;20120;-65
2022/12/27 06:16:43;;;;;;;16.63;3.23;;;;;;;;;;5066329;28;20147;-64
2022/12/27 06:19:09;;;;;;;14.53;3.10;;;;;;;;;;5066672;28;20054;-64
2022/12/27 06:21:35;;;;;;;10.10;3.77;;;;;;;;;;5066070;28;20047;-64
2022/12/27 06:24:01;;;;;;;21.60;4.40;;;;;;;;;;5067888;28;20515;-64
2022/12/27 06:26:29;;;;;;;12.47;2.80;;;;;;;;;;5068283;28;20388;-64
2022/12/27 06:28:55;;;;;;;14.97;2.73;;;;;;;;;;5067489;28;20044;-64
2022/12/27 06:31:21;;;;;;;15.97;3.37;;;;;;;;;;5067065;28;20045;-64
2022/12/27 06:33:48;;;;;;;11.97;3.47;;;;;;;;;;5067025;28;20127;-64
2022/12/27 06:36:16;;;;;;;10.43;3.07;;;;;;;;;;5067562;28;20049;-65
2022/12/27 06:38:42;;;;;;;11.90;2.87;;;;;;;;;;5067831;28;20513;-64
2022/12/27 06:41:09;;;;;;;21.87;3.43;;;;;;;;;;5068089;28;20051;-65
2022/12/27 06:43:35;;;;;;;17.50;3.60;;;;;;;;;;5067858;28;20406;-64
2022/12/27 06:46:03;;;;;;;23.70;3.57;;;;;;;;;;5067356;28;20815;-64
2022/12/27 06:48:29;;;;;;;17.23;3.43;;;;;;;;;;5067939;28;20084;-64
2022/12/27 06:50:55;;;;;;;12.93;3.23;;;;;;;;;;5066566;28;20391;-64
2022/12/27 06:53:21;;;;;;;14.80;3.23;;;;;;;;;;5066991;28;20323;-64
2022/12/27 06:55:47;;;;;;;14.93;3.77;;;;;;;;;;5065815;28;20048;-64
2022/12/27 06:58:13;;;;;;;12.33;3.30;;;;;;;;;;5056697;28;20198;-64
2022/12/27 07:00:40;;;;;;;13.53;3.47;;;;;;;;;;5058731;28;20079;-64
2022/12/27 07:03:06;;;;;;;14.07;2.37;;;;;;;;;;5078266;28;20445;-64
2022/12/27 07:05:35;;;;;;;17.87;5.13;;;;;;;;;;5070447;28;20127;-64
2022/12/27 07:08:01;;;;;;;12.37;3.07;;;;;;;;;;5071980;28;20044;-64
2022/12/27 07:10:27;;;;;;;20.20;4.07;;;;;;;;;;5069086;28;20132;-64
2022/12/27 07:12:53;;;;;;;12.77;3.97;;;;;;;;;;5071763;28;20472;-65
2022/12/27 07:15:19;;;;;;;13.00;3.53;;;;;;;;;;5061926;28;20067;-65
2022/12/27 07:17:45;;;;;;;17.53;4.27;;;;;;;;;;5067386;28;20051;-65
2022/12/27 07:20:12;;;;;;;17.30;4.00;;;;;;;;;;5071417;28;20410;-66
2022/12/27 07:22:38;;;;;;;14.90;3.40;;;;;;;;;;5065663;28;20059;-66
2022/12/27 07:25:04;;;;;;;16.13;3.63;;;;;;;;;;5057057;28;20040;-65
2022/12/27 07:27:33;;;;;;;11.37;3.87;;;;;;;;;;5066989;28;20044;-65
2022/12/27 07:29:58;;;;;;;15.67;5.07;;;;;;;;;;5068274;28;20037;-65
2022/12/27 07:32:24;;;;;;;14.57;4.27;;;;;;;;;;5061009;28;20079;-65
2022/12/27 07:34:51;;;;;;;18.97;5.10;;;;;;;;;;5065697;28;20048;-65
2022/12/27 07:37:17;;;;;;;21.33;5.50;;;;;;;;;;5071390;28;20045;-65
2022/12/27 07:39:43;;;;;;;20.33;5.10;;;;;;;;;;5065919;28;20381;-65
2022/12/27 07:42:09;;;;;;;20.50;5.10;;;;;;;;;;5069369;28;20406;-66
2022/12/27 07:44:35;;;;;;;19.33;5.20;;;;;;;;;;5070293;28;20088;-65
2022/12/27 07:47:01;;;;;;;21.50;5.07;;;;;;;;;;5070759;28;20059;-66
2022/12/27 07:49:27;;;;;;;20.53;5.90;;;;;;;;;;5070108;28;20132;-66
2022/12/27 07:51:53;;;;;;;18.37;4.30;;;;;;;;;;5069538;28;20139;-65
2022/12/27 07:54:19;;;;;;;24.97;5.43;;;;;;;;;;5071499;28;20147;-66
2022/12/27 07:56:45;;;;;;;20.90;5.20;;;;;;;;;;5060494;28;20212;-66
2022/12/27 07:59:12;;;;;;;17.03;4.60;;;;;;;;;;5066748;28;20079;-65
2022/12/27 08:02:02;;;;;;;17.77;4.07;;;;;;;;;;5068294;28;20044;-66
2022/12/27 08:04:24;;;;;;;16.37;4.23;;;;;;;;;;5067839;28;20498;-66
2022/12/27 08:06:50;;;;;;;18.60;4.57;;;;;;;;;;5052181;28;20044;-65
2022/12/27 08:09:19;;;;;;;23.57;4.87;;;;;;;;;;5054921;28;20406;-65
2022/12/27 08:11:45;;;;;;;24.30;4.90;;;;;;;;;;5067173;28;20127;-66
2022/12/27 08:14:11;;;;;;;21.13;4.03;;;;;;;;;;5067715;28;20484;-66
2022/12/27 08:16:37;;;;;;;19.17;4.30;;;;;;;;;;5069698;28;20047;-66
2022/12/27 08:19:03;;;;;;;20.07;4.60;;;;;;;;;;5070566;28;20051;-66
2022/12/27 08:21:29;;;;;;;19.37;4.00;;;;;;;;;;5068696;28;20057;-65
2022/12/27 08:23:55;;;;;;;21.10;4.50;;;;;;;;;;5063234;28;20052;-65
2022/12/27 08:26:21;;;;;;;16.33;4.07;;;;;;;;;;5067411;28;20036;-66
2022/12/27 08:28:47;;;;;;;22.30;4.97;;;;;;;;;;5068898;28;20118;-66
2022/12/27 08:31:13;;;;;;;15.10;4.47;;;;;;;;;;5052435;28;20072;-66
2022/12/27 08:33:40;;;;;;;20.53;4.33;;;;;;;;;;5068343;28;20071;-66
2022/12/27 08:36:07;;;;;;;21.90;4.43;;;;;;;;;;5069504;28;20048;-66
2022/12/27 08:38:34;;;;;;;13.77;4.50;;;;;;;;;;5068012;28;20072;-65
2022/12/27 08:41:00;;;;;;;16.03;4.37;;;;;;;;;;5048355;28;20056;-66
2022/12/27 08:43:28;;;;;;;16.33;4.37;;;;;;;;;;5047676;28;20160;-66
2022/12/27 08:45:59;;;;;;;27.93;6.90;;;;;;;;;;5049397;28;20060;-65
2022/12/27 08:48:25;;;;;;;26.10;5.97;;;;;;;;;;5051163;28;20059;-65
2022/12/27 08:50:51;;;;;;;25.80;5.67;;;;;;;;;;5067431;28;20044;-65
2022/12/27 08:53:17;;;;;;;18.87;5.97;;;;;;;;;;5056630;28;20052;-66
2022/12/27 08:55:43;;;;;;;18.80;5.70;;;;;;;;;;5064221;28;20041;-65
2022/12/27 08:58:10;;;;;;;13.77;5.73;;;;;;;;;;5059508;28;20426;-66
2022/12/27 09:00:37;;;;;;;19.77;5.67;;;;;;;;;;5051925;28;20047;-65
2022/12/27 09:03:03;;;;;;;23.37;6.03;;;;;;;;;;5065287;28;20123;-65
2022/12/27 09:05:29;;;;;;;19.20;5.07;;;;;;;;;;5063509;28;20040;-66
2022/12/27 09:07:55;;;;;;;17.13;5.37;;;;;;;;;;5055623;28;20117;-65
2022/12/27 09:10:22;;;;;;;14.10;4.93;;;;;;;;;;5061977;28;20045;-66
2022/12/27 09:12:49;;;;;;;19.83;5.67;;;;;;;;;;5064481;28;20049;-66
2022/12/27 09:15:15;;;;;;;23.60;4.87;;;;;;;;;;5050401;28;20175;-66
2022/12/27 09:17:41;;;;;;;21.43;5.43;;;;;;;;;;5069453;28;20040;-66
2022/12/27 09:20:08;;;;;;;18.47;6.23;;;;;;;;;;5068223;28;20418;-65
2022/12/27 09:22:34;;;;;;;22.27;5.23;;;;;;;;;;5067103;28;20094;-65
2022/12/27 09:25:00;;;;;;;16.23;3.93;;;;;;;;;;5064969;28;20045;-66
2022/12/27 09:27:26;;;;;;;19.00;4.70;;;;;;;;;;5068711;28;20071;-65
2022/12/27 09:29:52;;;;;;;16.77;3.87;;;;;;;;;;5063539;28;20049;-66
2022/12/27 09:32:18;;;;;;;20.43;5.03;;;;;;;;;;5061922;28;20117;-65
2022/12/27 09:34:44;;;;;;;27.93;6.43;;;;;;;;;;5055844;28;20106;-66
2022/12/27 09:37:11;;;;;;;16.63;3.90;;;;;;;;;;5061438;28;20044;-65
2022/12/27 09:39:37;;;;;;;14.53;4.43;;;;;;;;;;5064984;28;20513;-65
2022/12/27 09:42:11;;;;;;;23.83;4.60;;;;;;;;;;5054147;28;20393;-65
2022/12/27 09:44:42;;;;;;;21.13;5.00;;;;;;;;;;5059320;28;20136;-65
2022/12/27 09:47:12;;;;;;;14.40;4.73;;;;;;;;;;5059084;28;20066;-65
2022/12/27 09:49:39;;;;;;;15.87;3.33;;;;;;;;;;5065242;28;20080;-66
2022/12/27 09:52:20;;;;;;;19.57;4.83;;;;;;;;;;5054777;28;20049;-65
2022/12/27 09:54:56;;;;;;;15.10;4.00;;;;;;;;;;5051826;28;20048;-65
2022/12/27 09:57:30;;;;;;;16.23;3.90;;;;;;;;;;5049267;28;20059;-65
2022/12/27 09:59:58;;;;;;;16.17;3.63;;;;;;;;;;5066739;28;20114;-65
2022/12/27 10:02:25;;;;;;;14.97;4.00;;;;;;;;;;5059658;28;20036;-66
2022/12/27 10:04:52;;;;;;;18.17;6.00;;;;;;;;;;5056027;28;20071;-66
2022/12/27 10:07:24;;;;;;;19.57;4.87;;;;;;;;;;5067363;28;20044;-66
2022/12/27 10:10:00;;;;;;;11.07;3.57;;;;;;;;;;5053180;28;20055;-66
2022/12/27 10:12:35;;;;;;;17.00;4.73;;;;;;;;;;5067334;28;20056;-65
2022/12/27 10:15:01;;;;;;;13.97;3.87;;;;;;;;;;5066452;28;20463;-65
2022/12/27 10:17:33;;;;;;;14.17;3.17;;;;;;;;;;5067835;28;20167;-65
2022/12/27 10:20:10;;;;;;;11.97;2.80;;;;;;;;;;5067279;28;20052;-66
2022/12/27 10:22:47;;;;;;;9.87;2.50;;;;;;;;;;5050742;28;20081;-66
2022/12/27 10:25:15;;;;;;;11.07;3.67;;;;;;;;;;5047953;28;20049;-65
2022/12/27 10:27:41;;;;;;;18.53;3.20;;;;;;;;;;5047950;28;20058;-65
2022/12/27 10:30:15;;;;;;;12.50;2.57;;;;;;;;;;5065460;28;20053;-65
2022/12/27 10:32:41;;;;;;;10.83;3.37;;;;;;;;;;5066549;28;20045;-66
2022/12/27 10:35:12;;;;;;;13.83;2.60;;;;;;;;;;5066263;28;20127;-66
2022/12/27 10:37:39;;;;;;;9.93;2.20;;;;;;;;;;5064269;28;20167;-65
2022/12/27 10:40:09;;;;;;;12.03;2.40;;;;;;;;;;5049846;28;20049;-65
2022/12/27 10:42:41;;;;;;;14.73;2.67;;;;;;;;;;5048197;28;20045;-65
2022/12/27 10:45:25;;;;;;;8.93;2.60;;;;;;;;;;5064894;28;20059;-65
2022/12/27 10:47:52;;;;;;;18.20;4.20;;;;;;;;;;5066422;28;20049;-65
2022/12/27 10:50:22;;;;;;;16.27;3.10;;;;;;;;;;5065702;28;20047;-65
2022/12/27 10:52:48;;;;;;;13.57;4.10;;;;;;;;;;5057335;28;20037;-65
2022/12/27 10:55:30;;;;;;;9.07;2.53;;;;;;;;;;5061023;28;20049;-65
2022/12/27 10:57:56;;;;;;;14.83;3.87;;;;;;;;;;5056107;28;20403;-65
2022/12/27 11:00:23;;;;;;;13.90;2.67;;;;;;;;;;5064832;28;20890;-65
2022/12/27 11:02:56;;;;;;;10.43;2.40;;;;;;;;;;5053021;28;20060;-65
2022/12/27 11:05:22;;;;;;;;;;;;;;;;;;5052689;28;20053;-65
2022/12/27 11:07:49;;;;;;;5.87;2.20;;;;;;;;;;5057970;28;19924;-65
2022/12/27 11:10:16;;;;;;;10.37;2.57;;;;;;;;;;5056937;28;20048;-65
2022/12/27 11:12:56;;;;;;;14.50;2.40;;;;;;;;;;5062352;28;20160;-65
2022/12/27 11:15:23;;;;;;;13.60;2.37;;;;;;;;;;5065453;28;20052;-65
2022/12/27 11:17:56;;;;;;;13.97;2.40;;;;;;;;;;5069055;28;20053;-65
2022/12/27 11:20:22;;;;;;;11.50;2.63;;;;;;;;;;5066822;28;20055;-65
2022/12/27 11:22:52;;;;;;;14.77;3.00;;;;;;;;;;5064619;28;20542;-65
2022/12/27 11:25:18;;;;;;;6.80;2.10;;;;;;;;;;5064003;28;20049;-65
2022/12/27 11:27:45;;;;;;;13.50;2.27;;;;;;;;;;5063926;28;20044;-65
2022/12/27 11:30:22;;;;;;;8.77;2.30;;;;;;;;;;5053129;28;20048;-65
2022/12/27 11:32:48;;;;;;;11.17;2.50;;;;;;;;;;5061869;28;20053;-65
2022/12/27 11:35:18;;;;;;;9.47;2.50;;;;;;;;;;5066481;28;20136;-65
2022/12/27 11:37:45;;;;;;;11.43;2.70;;;;;;;;;;5065506;28;20060;-65
2022/12/27 11:40:29;;;;;;;10.77;2.67;;;;;;;;;;5066584;28;20041;-65
2022/12/27 11:42:59;;;;;;;10.30;2.85;;;;;;;;;;5068796;28;20079;-65
2022/12/27 11:45:33;;;;;;;7.70;2.53;;;;;;;;;;5069438;28;20060;-65
2022/12/27 11:48:07;;;;;;;8.93;2.40;;;;;;;;;;5061900;28;20083;-65
2022/12/27 11:50:40;;;;;;;16.45;4.00;;;;;;;;;;5070151;28;20051;-65
2022/12/27 11:53:11;;;;;;;15.18;2.63;;;;;;;;;;5065562;28;20041;-65
2022/12/27 11:55:41;;;;;;;11.80;3.10;;;;;;;;;;5057008;28;20119;-65
2022/12/27 11:58:45;;;;;;;11.47;3.23;;;;;;;;;;5068083;28;20049;-65
2022/12/27 12:01:21;;;;;;;20.00;3.30;;;;;;;;;;5047190;28;20045;-64
2022/12/27 12:04:00;;;;;;;10.63;3.10;;;;;;;;;;5038798;28;20047;-65
2022/12/27 12:06:48;;;;;;;9.40;2.60;;;;;;;;;;5052361;28;20122;-65
2022/12/27 12:09:20;;;;;;;11.20;3.40;;;;;;;;;;5068317;28;20063;-65
2022/12/27 12:11:52;;;;;;;12.70;2.57;;;;;;;;;;5068781;28;20040;-64
2022/12/27 12:14:31;;;;;;;19.80;3.53;;;;;;;;;;5053994;28;20372;-65
2022/12/27 12:17:15;;;;;;;12.17;2.93;;;;;;;;;;5060843;28;20513;-64
2022/12/27 12:19:41;;;;;;;12.53;3.27;;;;;;;;;;5067081;28;20044;-65
2022/12/27 12:22:26;;;;;;;10.70;3.13;;;;;;;;;;5067755;28;20059;-65
2022/12/27 12:25:11;;;;;;;13.30;3.17;;;;;;;;;;5049995;28;20214;-65
2022/12/27 12:28:15;;;;;;;11.37;2.80;;;;;;;;;;5064594;28;20053;-65
2022/12/27 12:30:50;;;;;;;15.57;4.30;;;;;;;;;;5010479;28;21103;-65
2022/12/27 12:33:28;;;;;;;10.03;4.07;;;;;;;;;;5009895;28;20176;-65
2022/12/27 12:36:12;;;;;;;9.37;3.63;;;;;;;;;;5052295;28;20131;-64
2022/12/27 12:38:57;;;;;;;12.40;4.57;;;;;;;;;;5067644;28;20479;-64
2022/12/27 12:41:46;;;;;;;11.37;5.80;;;;;;;;;;5067347;28;20525;-64
2022/12/27 12:44:12;;;;;;;17.60;6.10;;;;;;;;;;5066205;28;20601;-64
2022/12/27 12:47:05;;;;;;;16.40;5.33;;;;;;;;;;5056827;28;20093;-65
2022/12/27 12:49:31;;;;;;;16.70;5.30;;;;;;;;;;5049722;28;20056;-65
2022/12/27 12:51:57;;;;;;;16.63;5.43;;;;;;;;;;5065640;28;20059;-65
2022/12/27 12:54:43;;;;;;;13.37;6.07;;;;;;;;;;5062355;28;20067;-65
2022/12/27 12:57:09;;;;;;;13.43;6.67;;;;;;;;;;5057296;28;20044;-65
2022/12/27 12:59:38;;;;;;;16.17;6.47;;;;;;;;;;5069363;28;20044;-65
2022/12/27 13:02:19;;;;;;;17.60;7.87;;;;;;;;;;5067794;28;20060;-65
2022/12/27 13:04:55;;;;;;;15.30;8.10;;;;;;;;;;5048927;28;20135;-65
2022/12/27 13:07:30;;;;;;;18.40;8.50;;;;;;;;;;5047885;28;20060;-65
2022/12/27 13:10:15;;;;;;;19.70;8.17;;;;;;;;;;5049288;28;20052;-64
2022/12/27 13:12:54;;;;;;;17.63;8.30;;;;;;;;;;5047304;28;20522;-64
2022/12/27 13:15:28;;;;;;;18.63;7.53;;;;;;;;;;5048926;28;20450;-65
2022/12/27 13:18:13;;;;;;;19.00;9.10;;;;;;;;;;5047748;28;20098;-64
2022/12/27 13:20:51;;;;;;;17.63;8.53;;;;;;;;;;5048934;28;20063;-64
2022/12/27 13:23:17;;;;;;;15.87;8.90;;;;;;;;;;5048764;28;20049;-64
2022/12/27 13:25:48;;;;;;;16.40;9.47;;;;;;;;;;5048544;28;20059;-65
2022/12/27 13:28:30;;;;;;;21.47;10.13;;;;;;;;;;5048788;28;20087;-64
2022/12/27 13:30:56;;;;;;;18.53;11.07;;;;;;;;;;5048682;28;20053;-64
2022/12/27 13:33:35;;;;;;;19.43;10.90;;;;;;;;;;5048676;28;20053;-65
2022/12/27 13:36:09;;;;;;;35.43;20.07;;;;;;;;;;5048169;28;20060;-65
2022/12/27 13:38:48;;;;;;;22.67;10.70;;;;;;;;;;5048738;28;20087;-64
2022/12/27 13:41:26;;;;;;;21.10;11.33;;;;;;;;;;5047449;28;20049;-64
2022/12/27 13:43:57;;;;;;;16.80;9.80;;;;;;;;;;5047254;28;20110;-64
2022/12/27 13:46:29;;;;;;;18.00;9.97;;;;;;;;;;5047695;28;20049;-65
2022/12/27 13:49:15;;;;;;;16.40;9.83;;;;;;;;;;5048291;28;20494;-64
2022/12/27 13:51:49;;;;;;;17.20;9.70;;;;;;;;;;5030260;28;20049;-64
2022/12/27 13:54:31;;;;;;;18.80;10.10;;;;;;;;;;5048515;28;20053;-64
2022/12/27 13:56:57;;;;;;;17.47;10.37;;;;;;;;;;5047150;28;20052;-64
2022/12/27 13:59:40;;;;;;;20.07;10.80;;;;;;;;;;5047651;28;20052;-65
2022/12/27 14:02:25;;;;;;;23.48;12.27;;;;;;;;;;5049465;28;20453;-64
2022/12/27 14:05:00;;;;;;;19.43;12.60;;;;;;;;;;5047773;28;20534;-64
2022/12/27 14:07:34;;;;;;;20.77;12.33;;;;;;;;;;5047944;28;20053;-64
2022/12/27 14:10:07;;;;;;;17.90;12.37;;;;;;;;;;5047857;28;20049;-65
2022/12/27 14:12:39;;;;;;;24.77;12.00;;;;;;;;;;5046278;28;20128;-64
2022/12/27 14:15:07;;;;;;;20.23;12.73;;;;;;;;;;5048043;28;20037;-65
2022/12/27 14:17:59;;;;;;;21.27;13.57;;;;;;;;;;5048081;28;20063;-64
2022/12/27 14:20:44;;;;;;;18.87;12.93;;;;;;;;;;5031395;28;20511;-64
2022/12/27 14:23:17;;;;;;;25.63;12.83;;;;;;;;;;5047930;28;20080;-64
2022/12/27 14:25:43;;;;;;;19.17;12.57;;;;;;;;;;5046706;28;20056;-64
2022/12/27 14:28:09;;;;;;;25.60;12.10;;;;;;;;;;5046276;28;20183;-64
2022/12/27 14:30:53;;;;;;;20.93;12.70;;;;;;;;;;5047731;28;20053;-64
2022/12/27 14:33:38;;;;;;;23.43;12.47;;;;;;;;;;5048027;28;20049;-64
2022/12/27 14:36:13;;;;;;;21.30;12.77;;;;;;;;;;5047842;28;20572;-64
2022/12/27 14:38:39;;;;;;;19.63;12.27;;;;;;;;;;5047806;28;20057;-64
2022/12/27 14:41:24;;;;;;;20.60;13.20;;;;;;;;;;5047660;28;20053;-64
2022/12/27 14:44:18;;;;;;;24.07;12.90;;;;;;;;;;5047362;28;20053;-64
2022/12/27 14:46:44;;;;;;;;;;;;;;;;;;5046851;28;20059;-64
2022/12/27 14:49:33;;;;;;;18.83;12.80;;;;;;;;;;5047575;28;19921;-64
2022/12/27 14:52:12;;;;;;;21.73;12.70;;;;;;;;;;5027448;28;20131;-64
2022/12/27 14:54:57;;;;;;;23.20;13.70;;;;;;;;;;5047721;28;20041;-64
2022/12/27 14:57:38;;;;;;;26.13;14.30;;;;;;;;;;5046046;28;20415;-64
2022/12/27 15:00:04;;;;;;;22.17;12.70;;;;;;;;;;5048730;28;20404;-64
2022/12/27 15:02:56;;;;;;;24.90;12.43;;;;;;;;;;5049039;28;20060;-64
2022/12/27 15:05:40;;;;;;;23.27;14.20;;;;;;;;;;5066226;28;20064;-64
2022/12/27 15:08:24;;;;;;;22.57;13.90;;;;;;;;;;5067602;28;20508;-64
2022/12/27 15:10:50;;;;;;;27.43;18.30;;;;;;;;;;5067355;28;20515;-64
2022/12/27 15:13:23;;;;;;;32.37;19.90;;;;;;;;;;5066724;28;20143;-64
2022/12/27 15:15:56;;;;;;;22.27;13.57;;;;;;;;;;5067173;28;20056;-64
2022/12/27 15:18:22;;;;;;;;;;;;;;;;;;5071151;28;20051;-64
2022/12/27 15:21:10;;;;;;;22.60;12.10;;;;;;;;;;5071713;28;20018;-64
2022/12/27 15:23:51;;;;;;;22.47;13.83;;;;;;;;;;5071021;28;20422;-64
2022/12/27 15:26:37;;;;;;;56.13;28.60;;;;;;;;;;5069432;28;20045;-64
2022/12/27 15:29:16;;;;;;;48.63;29.50;;;;;;;;;;5059356;28;20866;-64
2022/12/27 15:31:45;;;;;;;30.10;13.77;;;;;;;;;;5071067;28;20515;-65
2022/12/27 15:34:30;;;;;;;23.57;14.23;;;;;;;;;;5056189;28;20057;-65
2022/12/27 15:36:56;;;;;;;27.33;16.43;;;;;;;;;;5070175;28;20162;-64
2022/12/27 15:39:34;;;;;;;25.67;14.13;;;;;;;;;;5071062;28;20052;-65
2022/12/27 15:42:00;;;;;;;36.57;18.10;;;;;;;;;;5069839;28;20048;-64
2022/12/27 15:44:48;;;;;;;51.33;28.57;;;;;;;;;;5070390;28;20414;-65
2022/12/27 15:47:23;;;;;;;28.77;14.27;;;;;;;;;;5070637;28;20056;-64
2022/12/27 15:50:08;;;;;;;22.30;13.37;;;;;;;;;;5070660;28;20045;-64
2022/12/27 15:52:46;;;;;;;26.23;14.50;;;;;;;;;;5070752;28;20076;-64
2022/12/27 15:55:20;;;;;;;21.50;12.20;;;;;;;;;;5070706;28;20178;-64
2022/12/27 15:58:04;;;;;;;27.87;15.70;;;;;;;;;;5070185;28;20070;-64
2022/12/27 16:00:31;;;;;;;31.77;17.73;;;;;;;;;;5070598;28;20047;-64
2022/12/27 16:02:58;;;;;;;36.37;20.87;;;;;;;;;;5066560;28;20429;-64
2022/12/27 16:05:24;;;;;;;25.17;15.80;;;;;;;;;;5057348;28;20371;-64
2022/12/27 16:07:52;;;;;;;26.17;14.07;;;;;;;;;;5065898;28;20503;-64
2022/12/27 16:10:39;;;;;;;42.77;25.50;;;;;;;;;;5056455;28;20072;-64
2022/12/27 16:13:08;;;;;;;18.10;11.90;;;;;;;;;;5051030;28;20482;-65
2022/12/27 16:15:38;;;;;;;23.30;12.37;;;;;;;;;;5060612;28;20070;-65
2022/12/27 16:18:05;;;;;;;33.10;13.97;;;;;;;;;;5067535;28;20102;-65
2022/12/27 16:20:32;;;;;;;23.37;13.63;;;;;;;;;;5060478;28;20580;-64
2022/12/27 16:23:00;;;;;;;23.03;12.30;;;;;;;;;;5061293;28;20056;-65
2022/12/27 16:25:30;;;;;;;25.43;13.30;;;;;;;;;;5058436;28;20041;-65
2022/12/27 16:27:58;;;;;;;27.97;15.60;;;;;;;;;;5059810;28;20612;-65
2022/12/27 16:30:34;;;;;;;25.47;12.80;;;;;;;;;;5061084;28;20091;-65
2022/12/27 16:33:02;;;;;;;20.43;11.93;;;;;;;;;;5059976;28;20513;-65